sensor_id;sensor_type;location;lat;lon;timestamp;temperature;humidity
1413;DHT22;701;52.526;13.408;2022-09-30T00:01:09;9.00;35.00
1413;DHT22;701;52.526;13.408;2022-09-30T00:03:35;9.00;35.00
1413;DHT22;701;52.526;13.408;2022-09-30T00:06:05;9.00;35.00
1413;DHT22;701;52.526;13.408;2022-09-30T00:08:31;9.00;35.10
1413;DHT22;701;52.526;13.408;2022-09-30T00:11:02;9.00;35.00
1413;DHT22;701;52.526;13.408;2022-09-30T00:13:30;9.00;35.20
1413;DHT22;701;52.526;13.408;2022-09-30T00:15:55;8.90;35.30
1413;DHT22;701;52.526;13.408;2022-09-30T00:18:21;8.90;35.70
1413;DHT22;701;52.526;13.408;2022-09-30T00:20:47;8.90;35.70
1413;DHT22;701;52.526;13.408;2022-09-30T00:23:12;8.90;35.70
1413;DHT22;701;52.526;13.408;2022-09-30T00:25:38;8.80;35.60
1413;DHT22;701;52.526;13.408;2022-09-30T00:28:04;8.80;35.70
1413;DHT22;701;52.526;13.408;2022-09-30T00:30:33;8.80;36.20
1413;DHT22;701;52.526;13.408;2022-09-30T00:32:59;8.80;37.30
1413;DHT22;701;52.526;13.408;2022-09-30T00:35:25;8.70;37.90
1413;DHT22;701;52.526;13.408;2022-09-30T00:37:51;8.70;37.20
1413;DHT22;701;52.526;13.408;2022-09-30T00:40:18;8.70;37.20
1413;DHT22;701;52.526;13.408;2022-09-30T00:42:44;8.70;37.30
1413;DHT22;701;52.526;13.408;2022-09-30T00:45:11;8.70;37.50
1413;DHT22;701;52.526;13.408;2022-09-30T00:47:55;8.60;37.40
1413;DHT22;701;52.526;13.408;2022-09-30T00:53:15;8.60;37.50
1413;DHT22;701;52.526;13.408;2022-09-30T00:58:31;8.50;37.40
1413;DHT22;701;52.526;13.408;2022-09-30T01:00:59;8.50;38.60
1413;DHT22;701;52.526;13.408;2022-09-30T01:03:29;8.50;38.20
1413;DHT22;701;52.526;13.408;2022-09-30T01:05:56;8.50;38.20
1413;DHT22;701;52.526;13.408;2022-09-30T01:08:22;8.40;37.80
1413;DHT22;701;52.526;13.408;2022-09-30T01:10:49;8.40;38.20
1413;DHT22;701;52.526;13.408;2022-09-30T01:13:16;8.40;38.20
1413;DHT22;701;52.526;13.408;2022-09-30T01:18:26;8.40;38.60
1413;DHT22;701;52.526;13.408;2022-09-30T01:21:15;8.40;38.60
1413;DHT22;701;52.526;13.408;2022-09-30T01:23:59;8.40;38.90
1413;DHT22;701;52.526;13.408;2022-09-30T01:29:59;8.40;39.10
1413;DHT22;701;52.526;13.408;2022-09-30T01:35:08;8.40;39.20
1413;DHT22;701;52.526;13.408;2022-09-30T01:38:11;8.40;39.40
1413;DHT22;701;52.526;13.408;2022-09-30T01:40:58;8.30;39.60
1413;DHT22;701;52.526;13.408;2022-09-30T01:44:07;8.30;39.40
1413;DHT22;701;52.526;13.408;2022-09-30T01:46:42;8.30;39.60
1413;DHT22;701;52.526;13.408;2022-09-30T01:52:05;8.30;39.60
1413;DHT22;701;52.526;13.408;2022-09-30T01:54:33;8.30;39.60
1413;DHT22;701;52.526;13.408;2022-09-30T01:57:10;8.30;39.60
1413;DHT22;701;52.526;13.408;2022-09-30T01:59:46;8.30;39.60
1413;DHT22;701;52.526;13.408;2022-09-30T02:02:19;8.30;39.60
1413;DHT22;701;52.526;13.408;2022-09-30T02:05:02;8.30;40.40
1413;DHT22;701;52.526;13.408;2022-09-30T02:07:36;8.30;40.00
1413;DHT22;701;52.526;13.408;2022-09-30T02:10:09;8.30;39.60
1413;DHT22;701;52.526;13.408;2022-09-30T02:12:39;8.30;39.60
1413;DHT22;701;52.526;13.408;2022-09-30T02:15:12;8.20;39.50
1413;DHT22;701;52.526;13.408;2022-09-30T02:17:57;8.20;39.50
1413;DHT22;701;52.526;13.408;2022-09-30T02:20:31;8.20;39.80
1413;DHT22;701;52.526;13.408;2022-09-30T02:23:05;8.20;39.70
1413;DHT22;701;52.526;13.408;2022-09-30T02:25:36;8.20;39.50
1413;DHT22;701;52.526;13.408;2022-09-30T02:28:07;8.10;39.40
1413;DHT22;701;52.526;13.408;2022-09-30T02:30:37;8.10;39.90
1413;DHT22;701;52.526;13.408;2022-09-30T02:33:14;8.10;40.00
1413;DHT22;701;52.526;13.408;2022-09-30T02:35:49;8.00;40.00
1413;DHT22;701;52.526;13.408;2022-09-30T02:38:19;8.00;40.00
1413;DHT22;701;52.526;13.408;2022-09-30T02:40:47;8.00;40.00
1413;DHT22;701;52.526;13.408;2022-09-30T02:43:15;8.00;39.90
1413;DHT22;701;52.526;13.408;2022-09-30T02:45:50;7.90;40.10
1413;DHT22;701;52.526;13.408;2022-09-30T02:48:28;7.90;40.50
1413;DHT22;701;52.526;13.408;2022-09-30T02:54:06;7.90;40.40
1413;DHT22;701;52.526;13.408;2022-09-30T02:59:31;7.90;40.40
1413;DHT22;701;52.526;13.408;2022-09-30T03:01:57;7.90;40.30
1413;DHT22;701;52.526;13.408;2022-09-30T03:04:28;7.90;40.60
1413;DHT22;701;52.526;13.408;2022-09-30T03:06:55;7.90;40.70
1413;DHT22;701;52.526;13.408;2022-09-30T03:09:25;7.80;40.60
1413;DHT22;701;52.526;13.408;2022-09-30T03:11:56;7.90;41.50
1413;DHT22;701;52.526;13.408;2022-09-30T03:17:37;7.80;41.20
1413;DHT22;701;52.526;13.408;2022-09-30T03:20:17;7.80;41.10
1413;DHT22;701;52.526;13.408;2022-09-30T03:23:08;7.80;41.40
1413;DHT22;701;52.526;13.408;2022-09-30T03:33:58;7.80;41.60
1413;DHT22;701;52.526;13.408;2022-09-30T03:36:42;7.80;41.60
1413;DHT22;701;52.526;13.408;2022-09-30T03:44:47;7.80;41.70
1413;DHT22;701;52.526;13.408;2022-09-30T03:47:18;7.80;42.30
1413;DHT22;701;52.526;13.408;2022-09-30T03:49:48;7.70;42.00
1413;DHT22;701;52.526;13.408;2022-09-30T03:52:15;7.70;42.40
1413;DHT22;701;52.526;13.408;2022-09-30T03:55:02;7.70;42.20
1413;DHT22;701;52.526;13.408;2022-09-30T03:57:29;7.70;43.10
1413;DHT22;701;52.526;13.408;2022-09-30T03:59:56;7.70;42.60
1413;DHT22;701;52.526;13.408;2022-09-30T04:02:23;7.70;42.60
1413;DHT22;701;52.526;13.408;2022-09-30T04:04:49;7.70;42.70
1413;DHT22;701;52.526;13.408;2022-09-30T04:07:15;7.70;42.50
1413;DHT22;701;52.526;13.408;2022-09-30T04:09:40;7.70;42.50
1413;DHT22;701;52.526;13.408;2022-09-30T04:12:07;7.70;43.00
1413;DHT22;701;52.526;13.408;2022-09-30T04:14:33;7.70;42.60
1413;DHT22;701;52.526;13.408;2022-09-30T04:17:00;7.70;42.50
1413;DHT22;701;52.526;13.408;2022-09-30T04:19:26;7.70;42.40
1413;DHT22;701;52.526;13.408;2022-09-30T04:21:53;7.70;42.50
1413;DHT22;701;52.526;13.408;2022-09-30T04:24:20;7.70;42.60
1413;DHT22;701;52.526;13.408;2022-09-30T04:26:45;7.70;42.70
1413;DHT22;701;52.526;13.408;2022-09-30T04:29:11;7.70;42.60
1413;DHT22;701;52.526;13.408;2022-09-30T04:31:37;7.70;42.70
1413;DHT22;701;52.526;13.408;2022-09-30T04:34:04;7.70;42.60
1413;DHT22;701;52.526;13.408;2022-09-30T04:36:30;7.70;42.80
1413;DHT22;701;52.526;13.408;2022-09-30T04:38:56;7.70;43.00
1413;DHT22;701;52.526;13.408;2022-09-30T04:41:22;7.60;42.80
1413;DHT22;701;52.526;13.408;2022-09-30T04:43:48;7.60;42.80
1413;DHT22;701;52.526;13.408;2022-09-30T04:46:15;7.60;42.90
1413;DHT22;701;52.526;13.408;2022-09-30T04:48:41;7.60;42.80
1413;DHT22;701;52.526;13.408;2022-09-30T04:51:11;7.60;42.90
1413;DHT22;701;52.526;13.408;2022-09-30T04:53:38;7.70;43.30
1413;DHT22;701;52.526;13.408;2022-09-30T04:56:05;7.70;43.40
1413;DHT22;701;52.526;13.408;2022-09-30T04:58:30;7.70;43.40
1413;DHT22;701;52.526;13.408;2022-09-30T05:01:04;7.70;43.40
1413;DHT22;701;52.526;13.408;2022-09-30T05:03:30;7.70;43.40
1413;DHT22;701;52.526;13.408;2022-09-30T05:05:56;7.70;43.10
1413;DHT22;701;52.526;13.408;2022-09-30T05:08:22;7.70;43.00
1413;DHT22;701;52.526;13.408;2022-09-30T05:10:57;7.70;43.20
1413;DHT22;701;52.526;13.408;2022-09-30T05:13:24;7.70;43.00
1413;DHT22;701;52.526;13.408;2022-09-30T05:15:51;7.80;43.00
1413;DHT22;701;52.526;13.408;2022-09-30T05:18:20;7.80;43.10
1413;DHT22;701;52.526;13.408;2022-09-30T05:20:50;7.80;43.50
1413;DHT22;701;52.526;13.408;2022-09-30T05:23:16;7.80;43.50
1413;DHT22;701;52.526;13.408;2022-09-30T05:25:42;7.80;43.50
1413;DHT22;701;52.526;13.408;2022-09-30T05:28:08;7.80;43.40
1413;DHT22;701;52.526;13.408;2022-09-30T05:30:34;7.80;43.20
1413;DHT22;701;52.526;13.408;2022-09-30T05:32:59;7.80;43.00
1413;DHT22;701;52.526;13.408;2022-09-30T05:35:25;7.80;42.90
1413;DHT22;701;52.526;13.408;2022-09-30T05:37:51;7.90;43.00
1413;DHT22;701;52.526;13.408;2022-09-30T05:40:16;7.90;43.00
1413;DHT22;701;52.526;13.408;2022-09-30T05:42:42;7.90;43.00
1413;DHT22;701;52.526;13.408;2022-09-30T05:45:12;8.00;43.00
1413;DHT22;701;52.526;13.408;2022-09-30T05:47:38;8.00;42.90
1413;DHT22;701;52.526;13.408;2022-09-30T05:50:04;8.00;42.90
1413;DHT22;701;52.526;13.408;2022-09-30T05:52:30;8.10;43.00
1413;DHT22;701;52.526;13.408;2022-09-30T05:54:56;8.10;43.50
1413;DHT22;701;52.526;13.408;2022-09-30T05:57:29;8.10;42.80
1413;DHT22;701;52.526;13.408;2022-09-30T05:59:55;8.20;42.70
1413;DHT22;701;52.526;13.408;2022-09-30T06:02:23;8.20;42.60
1413;DHT22;701;52.526;13.408;2022-09-30T06:04:48;8.30;42.50
1413;DHT22;701;52.526;13.408;2022-09-30T06:07:15;8.30;42.30
1413;DHT22;701;52.526;13.408;2022-09-30T06:09:41;8.40;42.20
1413;DHT22;701;52.526;13.408;2022-09-30T06:12:07;8.40;42.10
1413;DHT22;701;52.526;13.408;2022-09-30T06:14:33;8.40;41.90
1413;DHT22;701;52.526;13.408;2022-09-30T06:16:58;8.50;41.80
1413;DHT22;701;52.526;13.408;2022-09-30T06:19:27;8.50;41.60
1413;DHT22;701;52.526;13.408;2022-09-30T06:21:56;8.60;41.50
1413;DHT22;701;52.526;13.408;2022-09-30T06:24:23;8.60;41.30
1413;DHT22;701;52.526;13.408;2022-09-30T06:26:48;8.70;41.20
1413;DHT22;701;52.526;13.408;2022-09-30T06:29:14;8.70;40.90
1413;DHT22;701;52.526;13.408;2022-09-30T06:31:40;8.80;40.80
1413;DHT22;701;52.526;13.408;2022-09-30T06:34:05;8.90;40.70
1413;DHT22;701;52.526;13.408;2022-09-30T06:36:31;8.90;40.10
1413;DHT22;701;52.526;13.408;2022-09-30T06:39:02;9.00;40.20
1413;DHT22;701;52.526;13.408;2022-09-30T06:41:28;9.00;40.20
1413;DHT22;701;52.526;13.408;2022-09-30T06:43:55;9.10;40.20
1413;DHT22;701;52.526;13.408;2022-09-30T06:46:21;9.20;39.80
1413;DHT22;701;52.526;13.408;2022-09-30T06:48:54;9.20;39.50
1413;DHT22;701;52.526;13.408;2022-09-30T06:51:20;9.30;39.30
1413;DHT22;701;52.526;13.408;2022-09-30T06:53:49;9.30;38.90
1413;DHT22;701;52.526;13.408;2022-09-30T06:56:16;9.40;38.70
1413;DHT22;701;52.526;13.408;2022-09-30T06:58:43;9.50;38.60
1413;DHT22;701;52.526;13.408;2022-09-30T07:01:10;9.50;38.30
1413;DHT22;701;52.526;13.408;2022-09-30T07:03:40;9.60;38.20
1413;DHT22;701;52.526;13.408;2022-09-30T07:06:06;9.70;37.80
1413;DHT22;701;52.526;13.408;2022-09-30T07:08:34;9.70;37.50
1413;DHT22;701;52.526;13.408;2022-09-30T07:11:02;9.80;37.40
1413;DHT22;701;52.526;13.408;2022-09-30T07:13:29;9.90;37.10
1413;DHT22;701;52.526;13.408;2022-09-30T07:15:55;10.00;35.70
1413;DHT22;701;52.526;13.408;2022-09-30T07:18:22;10.00;35.70
1413;DHT22;701;52.526;13.408;2022-09-30T07:20:52;10.10;35.20
1413;DHT22;701;52.526;13.408;2022-09-30T07:23:19;10.20;35.00
1413;DHT22;701;52.526;13.408;2022-09-30T07:25:52;10.20;34.60
1413;DHT22;701;52.526;13.408;2022-09-30T07:28:22;10.30;34.40
1413;DHT22;701;52.526;13.408;2022-09-30T07:30:52;10.40;33.90
1413;DHT22;701;52.526;13.408;2022-09-30T07:33:19;10.50;34.00
1413;DHT22;701;52.526;13.408;2022-09-30T07:35:52;10.60;33.70
1413;DHT22;701;52.526;13.408;2022-09-30T07:38:20;10.70;33.10
1413;DHT22;701;52.526;13.408;2022-09-30T07:43:28;10.80;32.50
1413;DHT22;701;52.526;13.408;2022-09-30T07:46:22;10.90;32.00
1413;DHT22;701;52.526;13.408;2022-09-30T07:48:50;11.00;31.90
1413;DHT22;701;52.526;13.408;2022-09-30T07:51:28;11.10;32.20
1413;DHT22;701;52.526;13.408;2022-09-30T07:54:01;11.10;31.70
1413;DHT22;701;52.526;13.408;2022-09-30T07:56:27;11.30;31.30
1413;DHT22;701;52.526;13.408;2022-09-30T07:58:59;11.30;31.20
1413;DHT22;701;52.526;13.408;2022-09-30T08:01:29;11.40;30.70
1413;DHT22;701;52.526;13.408;2022-09-30T08:04:00;11.50;30.60
1413;DHT22;701;52.526;13.408;2022-09-30T08:06:28;11.60;30.40
1413;DHT22;701;52.526;13.408;2022-09-30T08:08:55;11.70;29.90
1413;DHT22;701;52.526;13.408;2022-09-30T08:11:22;11.80;29.70
1413;DHT22;701;52.526;13.408;2022-09-30T08:13:51;11.90;29.60
1413;DHT22;701;52.526;13.408;2022-09-30T08:16:18;12.00;29.50
1413;DHT22;701;52.526;13.408;2022-09-30T08:18:45;12.00;29.20
1413;DHT22;701;52.526;13.408;2022-09-30T08:21:10;12.20;29.00
1413;DHT22;701;52.526;13.408;2022-09-30T08:23:36;12.30;29.10
1413;DHT22;701;52.526;13.408;2022-09-30T08:26:10;12.30;28.70
1413;DHT22;701;52.526;13.408;2022-09-30T08:28:37;12.40;28.40
1413;DHT22;701;52.526;13.408;2022-09-30T08:31:09;12.50;28.20
1413;DHT22;701;52.526;13.408;2022-09-30T08:33:35;12.60;27.90
1413;DHT22;701;52.526;13.408;2022-09-30T08:36:16;12.70;27.60
1413;DHT22;701;52.526;13.408;2022-09-30T08:38:42;12.80;27.20
1413;DHT22;701;52.526;13.408;2022-09-30T08:47:55;13.10;26.30
1413;DHT22;701;52.526;13.408;2022-09-30T08:50:21;13.20;26.20
1413;DHT22;701;52.526;13.408;2022-09-30T08:52:54;13.30;26.20
1413;DHT22;701;52.526;13.408;2022-09-30T08:55:24;13.40;26.00
1413;DHT22;701;52.526;13.408;2022-09-30T08:57:52;13.50;25.30
1413;DHT22;701;52.526;13.408;2022-09-30T09:00:20;13.60;25.50
1413;DHT22;701;52.526;13.408;2022-09-30T09:03:00;13.70;25.30
1413;DHT22;701;52.526;13.408;2022-09-30T09:11:31;15.70;23.00
1413;DHT22;701;52.526;13.408;2022-09-30T09:17:11;18.60;15.70
1413;DHT22;701;52.526;13.408;2022-09-30T09:19:49;19.90;13.60
1413;DHT22;701;52.526;13.408;2022-09-30T09:22:17;21.10;10.70
1413;DHT22;701;52.526;13.408;2022-09-30T09:24:45;22.10;9.60
1413;DHT22;701;52.526;13.408;2022-09-30T09:27:25;22.80;7.80
1413;DHT22;701;52.526;13.408;2022-09-30T09:30:13;23.50;4.80
1413;DHT22;701;52.526;13.408;2022-09-30T09:32:41;24.10;3.30
1413;DHT22;701;52.526;13.408;2022-09-30T09:35:15;24.50;4.00
1413;DHT22;701;52.526;13.408;2022-09-30T09:37:54;24.90;1.80
1413;DHT22;701;52.526;13.408;2022-09-30T09:44:13;25.50;1.00
1413;DHT22;701;52.526;13.408;2022-09-30T09:49:32;26.10;1.00
1413;DHT22;701;52.526;13.408;2022-09-30T09:54:24;26.30;1.00
1413;DHT22;701;52.526;13.408;2022-09-30T09:56:52;26.40;1.00
1413;DHT22;701;52.526;13.408;2022-09-30T09:59:19;26.30;1.00
1413;DHT22;701;52.526;13.408;2022-09-30T10:01:50;26.40;1.00
1413;DHT22;701;52.526;13.408;2022-09-30T10:04:26;26.20;1.00
1413;DHT22;701;52.526;13.408;2022-09-30T10:06:56;26.20;1.00
1413;DHT22;701;52.526;13.408;2022-09-30T10:09:31;26.30;1.00
1413;DHT22;701;52.526;13.408;2022-09-30T10:14:37;26.30;1.00
1413;DHT22;701;52.526;13.408;2022-09-30T10:17:21;26.20;1.00
1413;DHT22;701;52.526;13.408;2022-09-30T10:19:52;26.00;1.00
1413;DHT22;701;52.526;13.408;2022-09-30T10:22:26;25.90;1.00
1413;DHT22;701;52.526;13.408;2022-09-30T10:30:33;25.80;1.00
1413;DHT22;701;52.526;13.408;2022-09-30T10:33:00;25.70;1.00
1413;DHT22;701;52.526;13.408;2022-09-30T10:35:29;25.50;1.00
1413;DHT22;701;52.526;13.408;2022-09-30T10:37:57;25.50;1.00
1413;DHT22;701;52.526;13.408;2022-09-30T10:40:27;25.30;1.00
1413;DHT22;701;52.526;13.408;2022-09-30T10:42:54;25.10;1.00
1413;DHT22;701;52.526;13.408;2022-09-30T10:45:28;25.10;1.00
1413;DHT22;701;52.526;13.408;2022-09-30T10:47:55;25.10;1.00
1413;DHT22;701;52.526;13.408;2022-09-30T10:50:23;24.90;1.00
1413;DHT22;701;52.526;13.408;2022-09-30T10:52:55;24.90;1.00
1413;DHT22;701;52.526;13.408;2022-09-30T10:57:48;24.60;1.00
1413;DHT22;701;52.526;13.408;2022-09-30T11:00:18;24.40;1.00
1413;DHT22;701;52.526;13.408;2022-09-30T11:03:13;24.30;1.00
1413;DHT22;701;52.526;13.408;2022-09-30T11:05:43;24.00;1.00
1413;DHT22;701;52.526;13.408;2022-09-30T11:21:49;23.00;1.00
1413;DHT22;701;52.526;13.408;2022-09-30T11:24:39;22.80;1.00
1413;DHT22;701;52.526;13.408;2022-09-30T11:30:38;22.50;1.00
1413;DHT22;701;52.526;13.408;2022-09-30T11:36:03;21.90;1.00
1413;DHT22;701;52.526;13.408;2022-09-30T11:38:44;21.70;1.00
1413;DHT22;701;52.526;13.408;2022-09-30T11:41:30;21.50;1.00
1413;DHT22;701;52.526;13.408;2022-09-30T11:44:07;21.40;1.00
1413;DHT22;701;52.526;13.408;2022-09-30T11:52:11;21.00;1.00
1413;DHT22;701;52.526;13.408;2022-09-30T11:57:44;20.60;1.00
1413;DHT22;701;52.526;13.408;2022-09-30T12:00:16;20.40;1.00
1413;DHT22;701;52.526;13.408;2022-09-30T12:02:49;20.30;1.00
1413;DHT22;701;52.526;13.408;2022-09-30T12:05:37;20.20;1.00
1413;DHT22;701;52.526;13.408;2022-09-30T12:08:11;20.00;1.00
1413;DHT22;701;52.526;13.408;2022-09-30T12:10:49;19.90;1.00
1413;DHT22;701;52.526;13.408;2022-09-30T12:13:22;19.80;1.00
1413;DHT22;701;52.526;13.408;2022-09-30T12:15:50;19.60;1.30
1413;DHT22;701;52.526;13.408;2022-09-30T12:18:26;19.50;1.60
1413;DHT22;701;52.526;13.408;2022-09-30T12:20:56;19.50;1.80
1413;DHT22;701;52.526;13.408;2022-09-30T12:23:39;19.50;1.90
1413;DHT22;701;52.526;13.408;2022-09-30T12:26:06;19.40;2.00
1413;DHT22;701;52.526;13.408;2022-09-30T12:45:58;19.50;1.20
1413;DHT22;701;52.526;13.408;2022-09-30T12:48:42;19.60;1.20
1413;DHT22;701;52.526;13.408;2022-09-30T12:51:17;19.70;1.00
1413;DHT22;701;52.526;13.408;2022-09-30T12:53:49;19.70;1.00
1413;DHT22;701;52.526;13.408;2022-09-30T12:56:16;19.70;1.00
1413;DHT22;701;52.526;13.408;2022-09-30T12:58:47;19.80;1.00
1413;DHT22;701;52.526;13.408;2022-09-30T13:01:17;19.80;1.00
1413;DHT22;701;52.526;13.408;2022-09-30T13:07:03;19.90;1.00
1413;DHT22;701;52.526;13.408;2022-09-30T13:09:19;19.80;1.00
1413;DHT22;701;52.526;13.408;2022-09-30T13:14:37;19.60;1.10
1413;DHT22;701;52.526;13.408;2022-09-30T13:19:46;19.40;1.60
1413;DHT22;701;52.526;13.408;2022-09-30T13:27:36;19.20;1.30
1413;DHT22;701;52.526;13.408;2022-09-30T13:43:30;19.10;1.60
1413;DHT22;701;52.526;13.408;2022-09-30T13:45:58;19.30;1.50
1413;DHT22;701;52.526;13.408;2022-09-30T13:48:34;19.40;1.30
1413;DHT22;701;52.526;13.408;2022-09-30T13:51:06;19.50;1.30
1413;DHT22;701;52.526;13.408;2022-09-30T13:53:47;19.50;1.00
1413;DHT22;701;52.526;13.408;2022-09-30T13:56:45;19.50;1.00
1413;DHT22;701;52.526;13.408;2022-09-30T14:02:14;19.40;1.00
1413;DHT22;701;52.526;13.408;2022-09-30T14:05:21;19.40;1.00
1413;DHT22;701;52.526;13.408;2022-09-30T14:10:42;19.70;1.00
1413;DHT22;701;52.526;13.408;2022-09-30T14:16:38;19.70;1.00
1413;DHT22;701;52.526;13.408;2022-09-30T14:21:54;19.50;1.00
1413;DHT22;701;52.526;13.408;2022-09-30T14:24:28;19.40;1.00
1413;DHT22;701;52.526;13.408;2022-09-30T14:27:16;19.30;1.00
1413;DHT22;701;52.526;13.408;2022-09-30T14:30:04;19.30;1.00
1413;DHT22;701;52.526;13.408;2022-09-30T14:32:59;19.30;1.00
1413;DHT22;701;52.526;13.408;2022-09-30T14:35:33;19.30;1.00
1413;DHT22;701;52.526;13.408;2022-09-30T14:38:12;19.30;1.00
1413;DHT22;701;52.526;13.408;2022-09-30T14:40:40;19.30;1.00
1413;DHT22;701;52.526;13.408;2022-09-30T14:43:15;19.20;1.00
1413;DHT22;701;52.526;13.408;2022-09-30T14:45:44;19.20;1.00
1413;DHT22;701;52.526;13.408;2022-09-30T14:48:17;19.20;1.00
1413;DHT22;701;52.526;13.408;2022-09-30T14:50:52;19.10;1.00
1413;DHT22;701;52.526;13.408;2022-09-30T14:53:36;19.10;1.00
1413;DHT22;701;52.526;13.408;2022-09-30T14:56:27;19.10;1.00
1413;DHT22;701;52.526;13.408;2022-09-30T14:58:55;19.10;1.00
1413;DHT22;701;52.526;13.408;2022-09-30T15:01:24;19.20;1.00
1413;DHT22;701;52.526;13.408;2022-09-30T15:04:15;19.20;1.00
1413;DHT22;701;52.526;13.408;2022-09-30T15:06:51;19.20;1.00
1413;DHT22;701;52.526;13.408;2022-09-30T15:09:35;19.10;1.00
1413;DHT22;701;52.526;13.408;2022-09-30T15:12:06;19.10;1.00
1413;DHT22;701;52.526;13.408;2022-09-30T15:14:48;19.00;1.00
1413;DHT22;701;52.526;13.408;2022-09-30T15:17:26;18.80;1.00
1413;DHT22;701;52.526;13.408;2022-09-30T15:19:53;18.60;1.00
1413;DHT22;701;52.526;13.408;2022-09-30T15:22:20;18.60;1.00
1413;DHT22;701;52.526;13.408;2022-09-30T15:24:47;18.50;1.00
1413;DHT22;701;52.526;13.408;2022-09-30T15:27:31;18.40;1.00
1413;DHT22;701;52.526;13.408;2022-09-30T15:30:22;18.30;1.10
1413;DHT22;701;52.526;13.408;2022-09-30T15:32:47;18.30;1.30
1413;DHT22;701;52.526;13.408;2022-09-30T15:35:18;18.30;1.30
1413;DHT22;701;52.526;13.408;2022-09-30T15:37:49;18.30;1.40
1413;DHT22;701;52.526;13.408;2022-09-30T15:40:21;18.30;1.40
1413;DHT22;701;52.526;13.408;2022-09-30T15:43:08;18.20;1.40
1413;DHT22;701;52.526;13.408;2022-09-30T15:45:40;18.30;1.50
1413;DHT22;701;52.526;13.408;2022-09-30T15:50:48;18.30;1.50
1413;DHT22;701;52.526;13.408;2022-09-30T15:53:21;18.30;1.50
1413;DHT22;701;52.526;13.408;2022-09-30T15:55:48;18.30;1.60
1413;DHT22;701;52.526;13.408;2022-09-30T16:03:45;18.10;1.90
1413;DHT22;701;52.526;13.408;2022-09-30T16:06:13;18.00;2.20
1413;DHT22;701;52.526;13.408;2022-09-30T16:08:46;17.80;2.30
1413;DHT22;701;52.526;13.408;2022-09-30T16:11:25;17.70;2.80
1413;DHT22;701;52.526;13.408;2022-09-30T16:13:53;17.60;3.00
1413;DHT22;701;52.526;13.408;2022-09-30T16:16:24;17.40;2.90
1413;DHT22;701;52.526;13.408;2022-09-30T16:18:53;17.20;2.70
1413;DHT22;701;52.526;13.408;2022-09-30T16:23:55;16.90;3.60
1413;DHT22;701;52.526;13.408;2022-09-30T16:26:27;16.70;3.70
1413;DHT22;701;52.526;13.408;2022-09-30T16:28:55;16.60;4.30
1413;DHT22;701;52.526;13.408;2022-09-30T16:31:22;16.40;4.50
1413;DHT22;701;52.526;13.408;2022-09-30T16:33:48;16.30;5.10
1413;DHT22;701;52.526;13.408;2022-09-30T16:36:14;16.20;5.50
1413;DHT22;701;52.526;13.408;2022-09-30T16:38:40;16.00;5.80
1413;DHT22;701;52.526;13.408;2022-09-30T16:41:11;15.90;5.70
1413;DHT22;701;52.526;13.408;2022-09-30T16:43:37;15.70;6.10
1413;DHT22;701;52.526;13.408;2022-09-30T16:46:03;15.60;6.40
1413;DHT22;701;52.526;13.408;2022-09-30T16:48:29;15.50;6.70
1413;DHT22;701;52.526;13.408;2022-09-30T16:51:15;15.40;7.20
1413;DHT22;701;52.526;13.408;2022-09-30T16:53:41;15.30;7.90
1413;DHT22;701;52.526;13.408;2022-09-30T16:56:18;15.20;7.70
1413;DHT22;701;52.526;13.408;2022-09-30T16:58:44;15.10;8.30
1413;DHT22;701;52.526;13.408;2022-09-30T17:01:21;15.00;8.40
1413;DHT22;701;52.526;13.408;2022-09-30T17:03:47;14.90;8.90
1413;DHT22;701;52.526;13.408;2022-09-30T17:06:18;14.80;8.90
1413;DHT22;701;52.526;13.408;2022-09-30T17:08:47;14.70;9.50
1413;DHT22;701;52.526;13.408;2022-09-30T17:11:13;14.70;9.60
1413;DHT22;701;52.526;13.408;2022-09-30T17:13:39;14.60;9.90
1413;DHT22;701;52.526;13.408;2022-09-30T17:16:06;14.50;10.10
1413;DHT22;701;52.526;13.408;2022-09-30T17:18:32;14.40;10.50
1413;DHT22;701;52.526;13.408;2022-09-30T17:20:57;14.40;11.00
1413;DHT22;701;52.526;13.408;2022-09-30T17:23:25;14.30;11.00
1413;DHT22;701;52.526;13.408;2022-09-30T17:25:51;14.30;11.30
1413;DHT22;701;52.526;13.408;2022-09-30T17:28:18;14.20;11.70
1413;DHT22;701;52.526;13.408;2022-09-30T17:30:44;14.20;12.50
1413;DHT22;701;52.526;13.408;2022-09-30T17:33:12;14.10;12.20
1413;DHT22;701;52.526;13.408;2022-09-30T17:35:38;14.10;12.20
1413;DHT22;701;52.526;13.408;2022-09-30T17:38:11;14.10;12.20
1413;DHT22;701;52.526;13.408;2022-09-30T17:40:38;14.00;12.60
1413;DHT22;701;52.526;13.408;2022-09-30T17:43:22;14.00;12.70
1413;DHT22;701;52.526;13.408;2022-09-30T17:45:48;13.90;13.10
1413;DHT22;701;52.526;13.408;2022-09-30T17:48:20;13.90;13.20
1413;DHT22;701;52.526;13.408;2022-09-30T17:50:47;13.80;13.80
1413;DHT22;701;52.526;13.408;2022-09-30T17:53:15;13.80;13.70
1413;DHT22;701;52.526;13.408;2022-09-30T17:55:43;13.70;13.70
1413;DHT22;701;52.526;13.408;2022-09-30T17:58:12;13.70;14.00
1413;DHT22;701;52.526;13.408;2022-09-30T18:00:38;13.60;14.20
1413;DHT22;701;52.526;13.408;2022-09-30T18:03:04;13.60;14.50
1413;DHT22;701;52.526;13.408;2022-09-30T18:05:31;13.60;14.80
1413;DHT22;701;52.526;13.408;2022-09-30T18:07:58;13.50;14.90
1413;DHT22;701;52.526;13.408;2022-09-30T18:10:24;13.50;15.50
1413;DHT22;701;52.526;13.408;2022-09-30T18:12:51;13.50;15.40
1413;DHT22;701;52.526;13.408;2022-09-30T18:15:17;13.40;15.40
1413;DHT22;701;52.526;13.408;2022-09-30T18:17:45;13.40;15.40
1413;DHT22;701;52.526;13.408;2022-09-30T18:20:11;13.40;15.50
1413;DHT22;701;52.526;13.408;2022-09-30T18:22:37;13.40;15.40
1413;DHT22;701;52.526;13.408;2022-09-30T18:25:03;13.30;15.40
1413;DHT22;701;52.526;13.408;2022-09-30T18:27:56;13.30;15.40
1413;DHT22;701;52.526;13.408;2022-09-30T18:30:22;13.30;16.10
1413;DHT22;701;52.526;13.408;2022-09-30T18:32:51;13.30;15.80
1413;DHT22;701;52.526;13.408;2022-09-30T18:35:20;13.30;15.80
1413;DHT22;701;52.526;13.408;2022-09-30T18:37:47;13.20;15.90
1413;DHT22;701;52.526;13.408;2022-09-30T18:40:16;13.20;16.10
1413;DHT22;701;52.526;13.408;2022-09-30T18:42:43;13.20;16.20
1413;DHT22;701;52.526;13.408;2022-09-30T18:45:09;13.20;16.50
1413;DHT22;701;52.526;13.408;2022-09-30T18:47:41;13.10;16.50
1413;DHT22;701;52.526;13.408;2022-09-30T18:50:12;13.10;16.90
1413;DHT22;701;52.526;13.408;2022-09-30T18:52:39;13.10;16.80
1413;DHT22;701;52.526;13.408;2022-09-30T18:55:05;13.10;16.80
1413;DHT22;701;52.526;13.408;2022-09-30T18:57:32;13.00;16.80
1413;DHT22;701;52.526;13.408;2022-09-30T18:59:59;13.00;17.00
1413;DHT22;701;52.526;13.408;2022-09-30T19:02:26;13.00;17.00
1413;DHT22;701;52.526;13.408;2022-09-30T19:04:53;12.90;17.10
1413;DHT22;701;52.526;13.408;2022-09-30T19:07:22;12.90;17.30
1413;DHT22;701;52.526;13.408;2022-09-30T19:09:49;12.80;17.50
1413;DHT22;701;52.526;13.408;2022-09-30T19:12:15;12.80;17.50
1413;DHT22;701;52.526;13.408;2022-09-30T19:14:42;12.80;17.70
1413;DHT22;701;52.526;13.408;2022-09-30T19:17:12;12.70;18.00
1413;DHT22;701;52.526;13.408;2022-09-30T19:19:38;12.70;18.00
1413;DHT22;701;52.526;13.408;2022-09-30T19:22:08;12.70;18.10
1413;DHT22;701;52.526;13.408;2022-09-30T19:24:35;12.60;18.30
1413;DHT22;701;52.526;13.408;2022-09-30T19:27:03;12.60;18.50
1413;DHT22;701;52.526;13.408;2022-09-30T19:29:30;12.60;18.60
1413;DHT22;701;52.526;13.408;2022-09-30T19:31:55;12.50;18.50